sensor_id;sensor_type;location;lat;lon;timestamp;pressure;altitude;pressure_sealevel;temperature;humidity
12195;BME280;27023;42.680;23.132;2022-11-12T00:00:28;93415.63;;;9.71;100.00
12195;BME280;27023;42.680;23.132;2022-11-12T00:02:55;93423.69;;;9.74;100.00
12195;BME280;27023;42.680;23.132;2022-11-12T00:05:23;93430.66;;;9.79;100.00
12195;BME280;27023;42.680;23.132;2022-11-12T00:07:50;93412.84;;;9.84;100.00
12195;BME280;27023;42.680;23.132;2022-11-12T00:10:17;93408.53;;;9.88;100.00
12195;BME280;27023;42.680;23.132;2022-11-12T00:12:43;93412.09;;;9.93;100.00
12195;BME280;27023;42.680;23.132;2022-11-12T00:15:11;93418.03;;;9.59;100.00
12195;BME280;27023;42.680;23.132;2022-11-12T00:17:38;93404.31;;;9.70;100.00
12195;BME280;27023;42.680;23.132;2022-11-12T00:20:06;93402.88;;;9.64;100.00
12195;BME280;27023;42.680;23.132;2022-11-12T00:22:34;93401.28;;;9.46;100.00
12195;BME280;27023;42.680;23.132;2022-11-12T00:25:01;93402.53;;;9.40;100.00
12195;BME280;27023;42.680;23.132;2022-11-12T00:27:27;93406.28;;;9.56;100.00
12195;BME280;27023;42.680;23.132;2022-11-12T00:29:54;93407.22;;;9.60;100.00
12195;BME280;27023;42.680;23.132;2022-11-12T00:32:21;93413.69;;;9.54;100.00
12195;BME280;27023;42.680;23.132;2022-11-12T00:34:47;93420.50;;;9.46;100.00
12195;BME280;27023;42.680;23.132;2022-11-12T00:37:14;93413.06;;;9.40;100.00
12195;BME280;27023;42.680;23.132;2022-11-12T00:39:44;93410.25;;;9.36;100.00
12195;BME280;27023;42.680;23.132;2022-11-12T00:42:11;93421.25;;;9.38;100.00
12195;BME280;27023;42.680;23.132;2022-11-12T00:44:37;93419.38;;;9.39;100.00
12195;BME280;27023;42.680;23.132;2022-11-12T00:47:04;93410.09;;;9.33;100.00
12195;BME280;27023;42.680;23.132;2022-11-12T00:49:31;93408.06;;;9.30;100.00
12195;BME280;27023;42.680;23.132;2022-11-12T00:51:57;93407.31;;;8.67;100.00
12195;BME280;27023;42.680;23.132;2022-11-12T00:54:24;93397.78;;;8.49;100.00
12195;BME280;27023;42.680;23.132;2022-11-12T00:56:52;93399.78;;;8.74;100.00
12195;BME280;27023;42.680;23.132;2022-11-12T00:59:19;93403.56;;;8.59;100.00
12195;BME280;27023;42.680;23.132;2022-11-12T01:01:45;93396.53;;;8.46;100.00
12195;BME280;27023;42.680;23.132;2022-11-12T01:04:12;93392.13;;;8.33;100.00
12195;BME280;27023;42.680;23.132;2022-11-12T01:06:39;93370.41;;;8.05;100.00
12195;BME280;27023;42.680;23.132;2022-11-12T01:09:07;93387.91;;;8.32;100.00
12195;BME280;27023;42.680;23.132;2022-11-12T01:11:34;93391.50;;;8.00;100.00
12195;BME280;27023;42.680;23.132;2022-11-12T01:14:05;93385.41;;;8.27;100.00
12195;BME280;27023;42.680;23.132;2022-11-12T01:16:34;93385.50;;;8.67;100.00
12195;BME280;27023;42.680;23.132;2022-11-12T01:19:03;93383.44;;;8.86;100.00
12195;BME280;27023;42.680;23.132;2022-11-12T01:21:31;93376.56;;;8.99;100.00
12195;BME280;27023;42.680;23.132;2022-11-12T01:24:00;93377.66;;;9.06;100.00
12195;BME280;27023;42.680;23.132;2022-11-12T01:26:27;93391.16;;;9.13;100.00
12195;BME280;27023;42.680;23.132;2022-11-12T01:28:54;93387.91;;;9.16;100.00
12195;BME280;27023;42.680;23.132;2022-11-12T01:31:24;93389.94;;;9.28;100.00
12195;BME280;27023;42.680;23.132;2022-11-12T01:33:53;93386.47;;;8.71;100.00
12195;BME280;27023;42.680;23.132;2022-11-12T01:36:20;93383.59;;;8.58;100.00
12195;BME280;27023;42.680;23.132;2022-11-12T01:38:47;93381.28;;;8.88;100.00
12195;BME280;27023;42.680;23.132;2022-11-12T01:41:16;93382.31;;;9.09;100.00
12195;BME280;27023;42.680;23.132;2022-11-12T01:43:43;93369.03;;;9.23;100.00
12195;BME280;27023;42.680;23.132;2022-11-12T01:46:13;93370.28;;;9.26;100.00
12195;BME280;27023;42.680;23.132;2022-11-12T01:48:47;93372.78;;;9.31;100.00
12195;BME280;27023;42.680;23.132;2022-11-12T01:51:15;93363.34;;;9.38;100.00
12195;BME280;27023;42.680;23.132;2022-11-12T01:53:45;93357.63;;;9.45;100.00
12195;BME280;27023;42.680;23.132;2022-11-12T01:56:13;93359.34;;;9.49;100.00
12195;BME280;27023;42.680;23.132;2022-11-12T01:58:43;93357.63;;;9.45;100.00
12195;BME280;27023;42.680;23.132;2022-11-12T02:01:12;93367.41;;;9.53;100.00
12195;BME280;27023;42.680;23.132;2022-11-12T02:03:38;93359.63;;;9.39;100.00
12195;BME280;27023;42.680;23.132;2022-11-12T02:06:08;93364.13;;;9.39;100.00
12195;BME280;27023;42.680;23.132;2022-11-12T02:08:37;93366.41;;;9.23;100.00
12195;BME280;27023;42.680;23.132;2022-11-12T02:11:11;93372.50;;;9.41;100.00
12195;BME280;27023;42.680;23.132;2022-11-12T02:13:38;93364.31;;;9.51;100.00
12195;BME280;27023;42.680;23.132;2022-11-12T02:16:23;93359.97;;;9.55;100.00
12195;BME280;27023;42.680;23.132;2022-11-12T02:18:50;93357.66;;;9.53;100.00
12195;BME280;27023;42.680;23.132;2022-11-12T02:21:20;93367.88;;;9.55;100.00
12195;BME280;27023;42.680;23.132;2022-11-12T02:23:56;93362.44;;;9.43;100.00
12195;BME280;27023;42.680;23.132;2022-11-12T02:26:23;93361.81;;;9.46;100.00
12195;BME280;27023;42.680;23.132;2022-11-12T02:28:50;93372.97;;;9.43;100.00
12195;BME280;27023;42.680;23.132;2022-11-12T02:31:17;93359.75;;;9.26;100.00
12195;BME280;27023;42.680;23.132;2022-11-12T02:33:43;93354.78;;;9.15;100.00
12195;BME280;27023;42.680;23.132;2022-11-12T02:36:10;93356.78;;;9.10;100.00
12195;BME280;27023;42.680;23.132;2022-11-12T02:38:38;93351.41;;;9.23;100.00
12195;BME280;27023;42.680;23.132;2022-11-12T02:41:05;93353.84;;;9.11;100.00
12195;BME280;27023;42.680;23.132;2022-11-12T02:43:31;93356.38;;;9.34;100.00
12195;BME280;27023;42.680;23.132;2022-11-12T02:45:58;93367.38;;;9.44;100.00
12195;BME280;27023;42.680;23.132;2022-11-12T02:48:25;93354.84;;;9.50;100.00
12195;BME280;27023;42.680;23.132;2022-11-12T02:50:51;93359.03;;;9.51;100.00
12195;BME280;27023;42.680;23.132;2022-11-12T02:53:18;93353.78;;;9.51;100.00
12195;BME280;27023;42.680;23.132;2022-11-12T02:55:46;93358.91;;;9.56;100.00
12195;BME280;27023;42.680;23.132;2022-11-12T02:58:13;93357.50;;;9.59;100.00
12195;BME280;27023;42.680;23.132;2022-11-12T03:00:40;93367.22;;;9.41;100.00
12195;BME280;27023;42.680;23.132;2022-11-12T03:03:07;93359.19;;;9.46;100.00
12195;BME280;27023;42.680;23.132;2022-11-12T03:05:34;93352.38;;;9.53;100.00
12195;BME280;27023;42.680;23.132;2022-11-12T03:08:03;93356.94;;;9.13;100.00
12195;BME280;27023;42.680;23.132;2022-11-12T03:10:31;93364.66;;;9.01;100.00
12195;BME280;27023;42.680;23.132;2022-11-12T03:13:00;93364.97;;;9.08;100.00
12195;BME280;27023;42.680;23.132;2022-11-12T03:15:28;93366.06;;;9.07;100.00
12195;BME280;27023;42.680;23.132;2022-11-12T03:17:56;93355.72;;;9.19;100.00
12195;BME280;27023;42.680;23.132;2022-11-12T03:20:23;93358.06;;;9.21;100.00
12195;BME280;27023;42.680;23.132;2022-11-12T03:22:55;93360.25;;;9.28;100.00
12195;BME280;27023;42.680;23.132;2022-11-12T03:25:22;93370.94;;;9.40;100.00
12195;BME280;27023;42.680;23.132;2022-11-12T03:27:55;93362.88;;;9.36;100.00
12195;BME280;27023;42.680;23.132;2022-11-12T03:30:24;93360.13;;;9.50;100.00
12195;BME280;27023;42.680;23.132;2022-11-12T03:32:51;93367.72;;;9.51;100.00
12195;BME280;27023;42.680;23.132;2022-11-12T03:35:17;93367.88;;;9.55;100.00
12195;BME280;27023;42.680;23.132;2022-11-12T03:37:44;93362.13;;;9.44;100.00
12195;BME280;27023;42.680;23.132;2022-11-12T03:40:11;93368.03;;;9.50;100.00
12195;BME280;27023;42.680;23.132;2022-11-12T03:42:37;93367.56;;;9.48;100.00
12195;BME280;27023;42.680;23.132;2022-11-12T03:45:05;93371.41;;;9.42;100.00
12195;BME280;27023;42.680;23.132;2022-11-12T03:47:33;93365.22;;;9.38;100.00
12195;BME280;27023;42.680;23.132;2022-11-12T03:50:00;93371.72;;;9.49;100.00
12195;BME280;27023;42.680;23.132;2022-11-12T03:52:27;93366.00;;;9.47;100.00
12195;BME280;27023;42.680;23.132;2022-11-12T03:54:53;93363.69;;;9.45;100.00
12195;BME280;27023;42.680;23.132;2022-11-12T03:57:20;93359.63;;;9.31;100.00
12195;BME280;27023;42.680;23.132;2022-11-12T03:59:47;93362.59;;;9.38;100.00
12195;BME280;27023;42.680;23.132;2022-11-12T04:02:13;93370.13;;;9.22;100.00
12195;BME280;27023;42.680;23.132;2022-11-12T04:04:41;93366.09;;;9.16;100.00
12195;BME280;27023;42.680;23.132;2022-11-12T04:07:25;93367.44;;;9.05;100.00
12195;BME280;27023;42.680;23.132;2022-11-12T04:10:09;93366.34;;;8.97;100.00
12195;BME280;27023;42.680;23.132;2022-11-12T04:12:36;93353.19;;;8.66;100.00
12195;BME280;27023;42.680;23.132;2022-11-12T04:15:19;93355.50;;;8.68;100.00
12195;BME280;27023;42.680;23.132;2022-11-12T04:17:46;93354.59;;;8.41;100.00
12195;BME280;27023;42.680;23.132;2022-11-12T04:20:32;93344.06;;;7.96;100.00
12195;BME280;27023;42.680;23.132;2022-11-12T04:23:16;93350.03;;;7.88;100.00
12195;BME280;27023;42.680;23.132;2022-11-12T04:25:43;93351.81;;;7.79;100.00
12195;BME280;27023;42.680;23.132;2022-11-12T04:28:27;93342.06;;;7.57;100.00
12195;BME280;27023;42.680;23.132;2022-11-12T04:30:54;93340.13;;;6.99;100.00
12195;BME280;27023;42.680;23.132;2022-11-12T04:33:19;93346.22;;;6.81;100.00
12195;BME280;27023;42.680;23.132;2022-11-12T04:35:47;93358.38;;;6.91;100.00
12195;BME280;27023;42.680;23.132;2022-11-12T04:38:14;93348.22;;;6.43;100.00
12195;BME280;27023;42.680;23.132;2022-11-12T04:40:41;93349.94;;;6.34;100.00
12195;BME280;27023;42.680;23.132;2022-11-12T04:43:25;93347.75;;;6.68;100.00
12195;BME280;27023;42.680;23.132;2022-11-12T04:46:09;93351.59;;;6.44;100.00
12195;BME280;27023;42.680;23.132;2022-11-12T04:48:35;93347.50;;;6.24;100.00
12195;BME280;27023;42.680;23.132;2022-11-12T04:51:04;93346.97;;;5.70;100.00
12195;BME280;27023;42.680;23.132;2022-11-12T04:53:51;93345.75;;;6.19;100.00
12195;BME280;27023;42.680;23.132;2022-11-12T04:56:18;93347.75;;;6.09;100.00
12195;BME280;27023;42.680;23.132;2022-11-12T04:58:45;93357.06;;;5.77;100.00
12195;BME280;27023;42.680;23.132;2022-11-12T05:01:12;93357.50;;;5.47;100.00
12195;BME280;27023;42.680;23.132;2022-11-12T05:03:38;93353.75;;;5.34;100.00
12195;BME280;27023;42.680;23.132;2022-11-12T05:06:07;93346.91;;;5.38;100.00
12195;BME280;27023;42.680;23.132;2022-11-12T05:08:54;93352.84;;;5.62;100.00
12195;BME280;27023;42.680;23.132;2022-11-12T05:11:21;93353.56;;;5.30;100.00
12195;BME280;27023;42.680;23.132;2022-11-12T05:13:48;93355.19;;;5.26;100.00
12195;BME280;27023;42.680;23.132;2022-11-12T05:16:14;93356.34;;;5.15;100.00
12195;BME280;27023;42.680;23.132;2022-11-12T05:18:41;93356.31;;;5.39;100.00
12195;BME280;27023;42.680;23.132;2022-11-12T05:21:09;93357.94;;;5.54;100.00
12195;BME280;27023;42.680;23.132;2022-11-12T05:23:49;93357.94;;;5.54;100.00
12195;BME280;27023;42.680;23.132;2022-11-12T05:26:16;93357.44;;;5.70;100.00
12195;BME280;27023;42.680;23.132;2022-11-12T05:28:43;93359.03;;;5.85;100.00
12195;BME280;27023;42.680;23.132;2022-11-12T05:31:09;93371.38;;;5.66;100.00
12195;BME280;27023;42.680;23.132;2022-11-12T05:33:36;93372.94;;;5.67;100.00
12195;BME280;27023;42.680;23.132;2022-11-12T05:36:03;93372.91;;;5.86;100.00
12195;BME280;27023;42.680;23.132;2022-11-12T05:38:31;93369.50;;;6.23;100.00
12195;BME280;27023;42.680;23.132;2022-11-12T05:40:58;93368.13;;;6.12;100.00
12195;BME280;27023;42.680;23.132;2022-11-12T05:43:24;93368.94;;;6.26;100.00
12195;BME280;27023;42.680;23.132;2022-11-12T05:45:51;93373.72;;;6.51;100.00
12195;BME280;27023;42.680;23.132;2022-11-12T05:48:18;93374.56;;;6.79;100.00
12195;BME280;27023;42.680;23.132;2022-11-12T05:50:48;93384.97;;;6.98;100.00
12195;BME280;27023;42.680;23.132;2022-11-12T05:53:15;93380.00;;;6.96;100.00
12195;BME280;27023;42.680;23.132;2022-11-12T05:55:43;93380.09;;;6.78;100.00
12195;BME280;27023;42.680;23.132;2022-11-12T05:58:09;93378.28;;;6.92;100.00
12195;BME280;27023;42.680;23.132;2022-11-12T06:00:36;93376.22;;;7.16;100.00
12195;BME280;27023;42.680;23.132;2022-11-12T06:03:06;93386.13;;;7.19;100.00
12195;BME280;27023;42.680;23.132;2022-11-12T06:05:33;93387.88;;;7.10;100.00
12195;BME280;27023;42.680;23.132;2022-11-12T06:08:00;93390.97;;;7.12;100.00
12195;BME280;27023;42.680;23.132;2022-11-12T06:10:28;93394.00;;;7.19;100.00
12195;BME280;27023;42.680;23.132;2022-11-12T06:12:56;93393.50;;;6.90;100.00
12195;BME280;27023;42.680;23.132;2022-11-12T06:15:23;93392.25;;;6.87;100.00
12195;BME280;27023;42.680;23.132;2022-11-12T06:17:51;93393.13;;;6.83;100.00
12195;BME280;27023;42.680;23.132;2022-11-12T06:20:18;93397.19;;;7.03;100.00
12195;BME280;27023;42.680;23.132;2022-11-12T06:22:45;93394.38;;;7.26;100.00
12195;BME280;27023;42.680;23.132;2022-11-12T06:25:11;93392.53;;;7.54;100.00
12195;BME280;27023;42.680;23.132;2022-11-12T06:27:38;93393.66;;;7.62;100.00
12195;BME280;27023;42.680;23.132;2022-11-12T06:30:08;93387.69;;;7.48;100.00
12195;BME280;27023;42.680;23.132;2022-11-12T06:32:35;93395.44;;;7.12;100.00
12195;BME280;27023;42.680;23.132;2022-11-12T06:35:01;93395.84;;;7.46;100.00
12195;BME280;27023;42.680;23.132;2022-11-12T06:37:28;93397.75;;;7.68;100.00
12195;BME280;27023;42.680;23.132;2022-11-12T06:39:55;93395.19;;;7.77;100.00
12195;BME280;27023;42.680;23.132;2022-11-12T06:42:21;93397.28;;;7.88;100.00
12195;BME280;27023;42.680;23.132;2022-11-12T06:44:48;93403.63;;;7.87;100.00
12195;BME280;27023;42.680;23.132;2022-11-12T06:47:16;93403.75;;;8.05;100.00
12195;BME280;27023;42.680;23.132;2022-11-12T06:49:43;93406.56;;;8.08;100.00
12195;BME280;27023;42.680;23.132;2022-11-12T06:52:09;93403.88;;;8.00;100.00
12195;BME280;27023;42.680;23.132;2022-11-12T06:54:36;93402.78;;;7.78;100.00
12195;BME280;27023;42.680;23.132;2022-11-12T06:57:03;93423.75;;;7.78;100.00
12195;BME280;27023;42.680;23.132;2022-11-12T06:59:29;93417.78;;;8.00;100.00
12195;BME280;27023;42.680;23.132;2022-11-12T07:01:56;93417.63;;;8.19;100.00
12195;BME280;27023;42.680;23.132;2022-11-12T07:04:25;93417.00;;;8.36;100.00
12195;BME280;27023;42.680;23.132;2022-11-12T07:06:51;93409.03;;;8.27;100.00
12195;BME280;27023;42.680;23.132;2022-11-12T07:09:18;93409.16;;;8.22;100.00
12195;BME280;27023;42.680;23.132;2022-11-12T07:11:45;93407.75;;;8.60;100.00
12195;BME280;27023;42.680;23.132;2022-11-12T07:14:11;93401.53;;;8.56;100.00
12195;BME280;27023;42.680;23.132;2022-11-12T07:16:38;93407.16;;;8.95;100.00
12195;BME280;27023;42.680;23.132;2022-11-12T07:19:05;93418.75;;;8.94;100.00
12195;BME280;27023;42.680;23.132;2022-11-12T07:21:33;93411.50;;;8.99;100.00
12195;BME280;27023;42.680;23.132;2022-11-12T07:24:00;93416.00;;;8.99;100.00
12195;BME280;27023;42.680;23.132;2022-11-12T07:26:26;93417.06;;;8.98;100.00
12195;BME280;27023;42.680;23.132;2022-11-12T07:28:53;93418.00;;;8.71;100.00
12195;BME280;27023;42.680;23.132;2022-11-12T07:31:21;93408.75;;;9.04;100.00
12195;BME280;27023;42.680;23.132;2022-11-12T07:33:48;93411.06;;;9.06;100.00
12195;BME280;27023;42.680;23.132;2022-11-12T07:36:16;93416.38;;;9.14;100.00
12195;BME280;27023;42.680;23.132;2022-11-12T07:38:45;93414.81;;;9.13;100.00
12195;BME280;27023;42.680;23.132;2022-11-12T07:41:13;93419.91;;;9.10;100.00
12195;BME280;27023;42.680;23.132;2022-11-12T07:43:42;93422.50;;;9.01;100.00
12195;BME280;27023;42.680;23.132;2022-11-12T07:46:10;93422.41;;;9.15;100.00
12195;BME280;27023;42.680;23.132;2022-11-12T07:48:38;93423.13;;;8.98;100.00
12195;BME280;27023;42.680;23.132;2022-11-12T07:51:06;93425.47;;;9.08;100.00
12195;BME280;27023;42.680;23.132;2022-11-12T07:53:33;93428.91;;;9.17;100.00
12195;BME280;27023;42.680;23.132;2022-11-12T07:56:03;93425.69;;;9.20;100.00
12195;BME280;27023;42.680;23.132;2022-11-12T07:58:32;93426.19;;;9.40;100.00
12195;BME280;27023;42.680;23.132;2022-11-12T08:01:06;93423.91;;;9.47;100.00
12195;BME280;27023;42.680;23.132;2022-11-12T08:03:33;93427.94;;;9.53;100.00
12195;BME280;27023;42.680;23.132;2022-11-12T08:06:01;93428.56;;;9.59;100.00
12195;BME280;27023;42.680;23.132;2022-11-12T08:08:27;93419.28;;;9.61;100.00
12195;BME280;27023;42.680;23.132;2022-11-12T08:10:54;93422.19;;;9.42;100.00
12195;BME280;27023;42.680;23.132;2022-11-12T08:13:23;93419.44;;;9.56;100.00
12195;BME280;27023;42.680;23.132;2022-11-12T08:15:50;93423.75;;;9.52;100.00
12195;BME280;27023;42.680;23.132;2022-11-12T08:18:17;93418.63;;;9.47;100.00
12195;BME280;27023;42.680;23.132;2022-11-12T08:20:43;93431.38;;;9.62;100.00
12195;BME280;27023;42.680;23.132;2022-11-12T08:23:10;93430.84;;;9.43;100.00
12195;BME280;27023;42.680;23.132;2022-11-12T08:25:37;93432.72;;;9.42;100.00
12195;BME280;27023;42.680;23.132;2022-11-12T08:28:03;93430.66;;;9.31;100.00
12195;BME280;27023;42.680;23.132;2022-11-12T08:30:32;93429.72;;;9.27;100.00
12195;BME280;27023;42.680;23.132;2022-11-12T08:33:00;93428.44;;;9.15;100.00
12195;BME280;27023;42.680;23.132;2022-11-12T08:35:29;93419.13;;;9.09;100.00
12195;BME280;27023;42.680;23.132;2022-11-12T08:37:57;93427.97;;;9.13;100.00
12195;BME280;27023;42.680;23.132;2022-11-12T08:40:24;93431.69;;;9.12;100.00
12195;BME280;27023;42.680;23.132;2022-11-12T08:42:56;93440.34;;;9.13;100.00
12195;BME280;27023;42.680;23.132;2022-11-12T08:45:23;93434.22;;;9.26;100.00
12195;BME280;27023;42.680;23.132;2022-11-12T08:47:51;93437.91;;;9.25;100.00
12195;BME280;27023;42.680;23.132;2022-11-12T08:50:18;93441.63;;;9.24;100.00
12195;BME280;27023;42.680;23.132;2022-11-12T08:52:44;93433.78;;;9.33;100.00
12195;BME280;27023;42.680;23.132;2022-11-12T08:55:11;93439.28;;;8.91;100.00
12195;BME280;27023;42.680;23.132;2022-11-12T08:57:39;93423.88;;;8.99;100.00
12195;BME280;27023;42.680;23.132;2022-11-12T09:00:07;93439.31;;;9.22;100.00
12195;BME280;27023;42.680;23.132;2022-11-12T09:02:34;93442.56;;;9.28;100.00
12195;BME280;27023;42.680;23.132;2022-11-12T09:05:03;93443.00;;;9.21;100.00
12195;BME280;27023;42.680;23.132;2022-11-12T09:07:30;93429.72;;;9.27;100.00
12195;BME280;27023;42.680;23.132;2022-11-12T09:09:57;93445.84;;;9.34;100.00
12195;BME280;27023;42.680;23.132;2022-11-12T09:12:24;93428.00;;;9.22;100.00
12195;BME280;27023;42.680;23.132;2022-11-12T09:14:50;93433.91;;;9.28;100.00
12195;BME280;27023;42.680;23.132;2022-11-12T09:17:17;93434.97;;;9.27;100.00
12195;BME280;27023;42.680;23.132;2022-11-12T09:19:44;93428.50;;;9.33;100.00
12195;BME280;27023;42.680;23.132;2022-11-12T09:22:12;93432.78;;;9.20;100.00
12195;BME280;27023;42.680;23.132;2022-11-12T09:24:38;93432.03;;;9.19;100.00
12195;BME280;27023;42.680;23.132;2022-11-12T09:27:05;93431.09;;;9.24;100.00
12195;BME280;27023;42.680;23.132;2022-11-12T09:29:32;93432.63;;;9.16;100.00
12195;BME280;27023;42.680;23.132;2022-11-12T09:31:58;93435.69;;;9.10;100.00
12195;BME280;27023;42.680;23.132;2022-11-12T09:34:26;93436.47;;;9.10;99.98
12195;BME280;27023;42.680;23.132;2022-11-12T09:36:53;93433.38;;;9.08;99.57
12195;BME280;27023;42.680;23.132;2022-11-12T09:39:21;93440.19;;;9.09;100.00
12195;BME280;27023;42.680;23.132;2022-11-12T09:41:48;93443.66;;;9.27;100.00
12195;BME280;27023;42.680;23.132;2022-11-12T09:44:17;93433.16;;;9.36;99.82
12195;BME280;27023;42.680;23.132;2022-11-12T09:46:47;93443.06;;;9.39;98.29
12195;BME280;27023;42.680;23.132;2022-11-12T09:49:19;93434.06;;;9.31;97.91
12195;BME280;27023;42.680;23.132;2022-11-12T09:51:49;93446.00;;;9.37;97.37
12195;BME280;27023;42.680;23.132;2022-11-12T09:54:22;93434.03;;;9.22;99.12
12195;BME280;27023;42.680;23.132;2022-11-12T09:56:50;93431.53;;;9.17;99.16
12195;BME280;27023;42.680;23.132;2022-11-12T09:59:18;93443.78;;;9.22;100.00
12195;BME280;27023;42.680;23.132;2022-11-12T10:01:57;93439.34;;;9.31;100.00
12195;BME280;27023;42.680;23.132;2022-11-12T10:04:43;93429.59;;;9.32;100.00
12195;BME280;27023;42.680;23.132;2022-11-12T10:07:19;93435.81;;;9.44;100.00
12195;BME280;27023;42.680;23.132;2022-11-12T10:10:00;93437.53;;;9.49;100.00
12195;BME280;27023;42.680;23.132;2022-11-12T10:12:32;93436.44;;;9.50;100.00
12195;BME280;27023;42.680;23.132;2022-11-12T10:15:31;93433.81;;;9.50;100.00
12195;BME280;27023;42.680;23.132;2022-11-12T10:18:27;93426.19;;;9.31;100.00
12195;BME280;27023;42.680;23.132;2022-11-12T10:20:55;93437.34;;;9.37;100.00
12195;BME280;27023;42.680;23.132;2022-11-12T10:23:27;93431.41;;;9.22;100.00
12195;BME280;27023;42.680;23.132;2022-11-12T10:25:57;93426.06;;;9.45;100.00
12195;BME280;27023;42.680;23.132;2022-11-12T10:28:27;93432.25;;;9.40;100.00
12195;BME280;27023;42.680;23.132;2022-11-12T10:30:58;93427.94;;;9.53;100.00
12195;BME280;27023;42.680;23.132;2022-11-12T10:33:29;93419.44;;;9.56;100.00
12195;BME280;27023;42.680;23.132;2022-11-12T10:36:14;93433.38;;;9.56;99.46
12195;BME280;27023;42.680;23.132;2022-11-12T10:38:44;93438.00;;;9.51;99.69
12195;BME280;27023;42.680;23.132;2022-11-12T10:41:19;93437.72;;;9.61;98.46
12195;BME280;27023;42.680;23.132;2022-11-12T10:43:58;93441.28;;;9.65;98.46
12195;BME280;27023;42.680;23.132;2022-11-12T10:46:27;93438.94;;;9.55;100.00
12195;BME280;27023;42.680;23.132;2022-11-12T10:49:01;93437.41;;;9.54;98.44
12195;BME280;27023;42.680;23.132;2022-11-12T10:51:31;93427.13;;;9.35;100.00
12195;BME280;27023;42.680;23.132;2022-11-12T10:53:58;93422.63;;;9.36;100.00
12195;BME280;27023;42.680;23.132;2022-11-12T10:56:28;93424.66;;;9.39;100.00
12195;BME280;27023;42.680;23.132;2022-11-12T10:59:10;93424.22;;;9.54;100.00
12195;BME280;27023;42.680;23.132;2022-11-12T11:01:39;93422.59;;;9.75;100.00
12195;BME280;27023;42.680;23.132;2022-11-12T11:04:15;93413.78;;;9.80;100.00
12195;BME280;27023;42.680;23.132;2022-11-12T11:06:42;93419.50;;;9.82;100.00
12195;BME280;27023;42.680;23.132;2022-11-12T11:09:15;93419.53;;;9.91;100.00
12195;BME280;27023;42.680;23.132;2022-11-12T11:11:50;93415.19;;;9.95;100.00
12195;BME280;27023;42.680;23.132;2022-11-12T11:14:27;93419.84;;;9.98;100.00
12195;BME280;27023;42.680;23.132;2022-11-12T11:16:55;93419.66;;;9.85;100.00
12195;BME280;27023;42.680;23.132;2022-11-12T11:19:27;93411.00;;;9.94;100.00
12195;BME280;27023;42.680;23.132;2022-11-12T11:22:05;93408.69;;;9.92;100.00
12195;BME280;27023;42.680;23.132;2022-11-12T11:24:38;93407.28;;;9.95;100.00
12195;BME280;27023;42.680;23.132;2022-11-12T11:27:25;93398.75;;;9.98;100.00
12195;BME280;27023;42.680;23.132;2022-11-12T11:30:03;93389.47;;;10.00;100.00
12195;BME280;27023;42.680;23.132;2022-11-12T11:32:54;93397.84;;;9.94;100.00
12195;BME280;27023;42.680;23.132;2022-11-12T11:35:45;93396.75;;;9.95;100.00
12195;BME280;27023;42.680;23.132;2022-11-12T11:41:19;93403.25;;;9.88;100.00
12195;BME280;27023;42.680;23.132;2022-11-12T11:44:02;93399.22;;;10.00;100.00
12195;BME280;27023;42.680;23.132;2022-11-12T11:46:42;93401.72;;;10.05;100.00
12195;BME280;27023;42.680;23.132;2022-11-12T11:49:30;93404.03;;;9.80;100.00
12195;BME280;27023;42.680;23.132;2022-11-12T11:52:06;93404.94;;;9.84;100.00
12195;BME280;27023;42.680;23.132;2022-11-12T11:54:50;93407.91;;;9.92;100.00
12195;BME280;27023;42.680;23.132;2022-11-12T11:57:22;93401.09;;;9.99;100.00
12195;BME280;27023;42.680;23.132;2022-11-12T12:00:04;93396.00;;;10.20;100.00
12195;BME280;27023;42.680;23.132;2022-11-12T12:03:16;93387.13;;;9.99;100.00
12195;BME280;27023;42.680;23.132;2022-11-12T12:05:52;93382.50;;;10.22;100.00
12195;BME280;27023;42.680;23.132;2022-11-12T12:08:29;93395.81;;;10.16;100.00
12195;BME280;27023;42.680;23.132;2022-11-12T12:11:05;93391.34;;;10.34;100.00
12195;BME280;27023;42.680;23.132;2022-11-12T12:13:45;93396.31;;;10.27;100.00
12195;BME280;27023;42.680;23.132;2022-11-12T12:19:11;93392.56;;;10.11;100.00
12195;BME280;27023;42.680;23.132;2022-11-12T12:21:47;93390.56;;;10.25;100.00
12195;BME280;27023;42.680;23.132;2022-11-12T12:24:18;93391.19;;;10.22;100.00
12195;BME280;27023;42.680;23.132;2022-11-12T12:26:50;93389.66;;;10.21;100.00
12195;BME280;27023;42.680;23.132;2022-11-12T12:29:24;93382.81;;;10.55;100.00
12195;BME280;27023;42.680;23.132;2022-11-12T12:32:00;93375.47;;;10.69;100.00
12195;BME280;27023;42.680;23.132;2022-11-12T12:34:31;93378.09;;;10.77;100.00
12195;BME280;27023;42.680;23.132;2022-11-12T12:37:04;93372.84;;;10.69;100.00
12195;BME280;27023;42.680;23.132;2022-11-12T12:39:37;93375.69;;;11.02;98.77
12195;BME280;27023;42.680;23.132;2022-11-12T12:42:12;93384.31;;;10.73;98.33
12195;BME280;27023;42.680;23.132;2022-11-12T12:44:45;93375.69;;;10.29;98.97
12195;BME280;27023;42.680;23.132;2022-11-12T12:47:35;93378.47;;;10.59;97.48
12195;BME280;27023;42.680;23.132;2022-11-12T12:50:06;93385.28;;;10.51;99.05
12195;BME280;27023;42.680;23.132;2022-11-12T12:52:59;93380.97;;;10.29;99.33
12195;BME280;27023;42.680;23.132;2022-11-12T12:55:37;93387.78;;;10.22;100.00
12195;BME280;27023;42.680;23.132;2022-11-12T12:58:15;93385.47;;;10.46;99.56
12195;BME280;27023;42.680;23.132;2022-11-12T13:00:46;93388.56;;;10.48;97.41
12195;BME280;27023;42.680;23.132;2022-11-12T13:03:48;93390.88;;;10.49;98.00
12195;BME280;27023;42.680;23.132;2022-11-12T13:06:22;93388.25;;;10.41;100.00
12195;BME280;27023;42.680;23.132;2022-11-12T13:08:53;93389.03;;;10.41;100.00
12195;BME280;27023;42.680;23.132;2022-11-12T13:11:48;93394.88;;;10.04;100.00